NCAR-RAP Real-Time Weather Data

Output produced by METARs form (10 April 2020  07:23 UTC)
found at http://weather.rap.ucar.edu/surface/
 
KP28 100656Z AUTO 04009G17KT 06/M08 A3017 RMK AO1 SLP217 T00561083
KP28 100556Z AUTO 05011KT 07/M08 A3017 RMK AO1 PK WND 06026/0508 SLP217 T00721078 10167 20072 401890061 53016
KP28 100456Z AUTO 05016G21KT 10/M05 A3015 RMK AO1 SLP206 T01001050
KP28 100356Z AUTO 05005KT 10/M02 A3013 RMK AO1 SLP203 T01001022
KP28 100256Z AUTO 03007KT 10/M02 A3012 RMK AO1 SLP200 T01001017 53021
KP28 100156Z AUTO 04006KT 11/M01 A3010 RMK AO1 SLP193 T01061006
KP28 100056Z AUTO 05005KT 14/M01 A3007 RMK AO1 SLP183 T01391011
KP28 092356Z AUTO 04009KT 17/M03 A3006 RMK AO1 SLP178 T01671033 10189 20161 56008
KP28 092256Z AUTO 03013G18KT 18/M03 A3006 RMK AO1 SLP176 T01781028
KP28 092156Z AUTO 35010KT 17/M02 A3006 RMK AO1 SLP178 T01721022
KP28 092056Z AUTO 01014G22KT 18/M02 A3008 RMK AO1 SLP183 T01781022 58022
KP28 091956Z AUTO 33010KT 18/M01 A3010 RMK AO1 SLP189 T01831011
KP28 091856Z AUTO 35009G16KT 17/M01 A3013 RMK AO1 SLP199 T01721006
KP28 091756Z AUTO 02009G17KT 16/M01 A3015 RMK AO1 SLP205 T01611011 10161 20061 50003
KP28 091656Z AUTO 01009G14KT 16/M01 A3016 RMK AO1 SLP210 T01561011
KP28 091556Z AUTO 04009KT 14/M02 A3015 RMK AO1 SLP204 T01441017
KP28 091456Z AUTO 03005KT 12/M01 A3014 RMK AO1 SLP202 T01221011 51016
KP28 091356Z AUTO 34003KT 09/01 A3014 RMK AO1 SLP201 T00940011
KP28 091256Z AUTO 36005KT 06/02 A3011 RMK AO1 SLP191 T00610017
KP28 091156Z AUTO 01006KT 07/01 A3009 RMK AO1 SLP183 T00670011 10128 20067 53017
KP28 091056Z AUTO 04006KT 08/01 A3007 RMK AO1 SLP173 T00830011
KP28 090956Z AUTO 05006KT 09/02 A3005 RMK AO1 SLP166 T00890017
KP28 090856Z AUTO 04007KT 09/02 A3004 RMK AO1 SLP160 T00940022 51015